createdAt,value
2019-02-28T00:01:58.830Z,8.20
2019-02-28T00:04:32.774Z,8.10
2019-02-28T00:07:02.013Z,8.00
2019-02-28T00:09:32.775Z,7.80
2019-02-28T00:12:03.524Z,7.70
2019-02-28T00:14:34.280Z,7.50
2019-02-28T00:17:06.194Z,7.40
2019-02-28T00:19:37.504Z,7.40
2019-02-28T00:22:08.190Z,7.40
2019-02-28T00:24:38.987Z,7.40
2019-02-28T00:27:09.703Z,7.50
2019-02-28T00:29:40.490Z,7.60
2019-02-28T00:32:11.204Z,7.70
2019-02-28T00:34:41.981Z,7.70
2019-02-28T00:37:31.792Z,7.80
2019-02-28T00:40:02.548Z,7.70
2019-02-28T00:42:33.284Z,7.80
2019-02-28T00:45:04.331Z,7.70
2019-02-28T00:47:35.099Z,7.70
2019-02-28T00:50:06.013Z,7.70
2019-02-28T00:52:36.750Z,7.70
2019-02-28T00:55:07.565Z,7.70
2019-02-28T00:57:38.302Z,7.80
2019-02-28T01:00:09.478Z,7.80
2019-02-28T01:02:40.215Z,7.90
2019-02-28T01:05:10.961Z,8.00
2019-02-28T01:07:41.723Z,8.00
2019-02-28T01:10:12.764Z,7.90
2019-02-28T01:12:43.460Z,8.00
2019-02-28T01:15:15.076Z,8.00
2019-02-28T01:17:45.803Z,7.90
2019-02-28T01:20:16.788Z,7.80
2019-02-28T01:22:47.790Z,7.70
2019-02-28T01:25:18.581Z,7.70
2019-02-28T01:27:52.375Z,7.70
2019-02-28T01:30:21.634Z,7.60
2019-02-28T01:32:52.380Z,7.50
2019-02-28T01:35:23.126Z,7.40
2019-02-28T01:37:53.904Z,7.40
2019-02-28T01:40:24.638Z,7.30
2019-02-28T01:42:55.405Z,7.30
2019-02-28T01:45:26.145Z,7.20
2019-02-28T01:47:56.919Z,7.20
2019-02-28T01:50:29.667Z,7.20
2019-02-28T01:53:00.021Z,7.10
2019-02-28T01:55:30.726Z,7.00
2019-02-28T01:58:01.413Z,6.80
2019-02-28T02:00:32.141Z,6.70
2019-02-28T02:03:02.907Z,6.60
2019-02-28T02:05:33.693Z,6.50
2019-02-28T02:08:07.268Z,6.50
2019-02-28T02:10:36.805Z,6.60
2019-02-28T02:13:07.531Z,6.60
2019-02-28T02:15:38.267Z,6.60
2019-02-28T02:18:09.909Z,6.60
2019-02-28T02:20:41.050Z,6.50
2019-02-28T02:23:11.806Z,6.40
2019-02-28T02:25:42.553Z,6.40
2019-02-28T02:28:13.299Z,6.30
2019-02-28T02:30:50.429Z,6.30
2019-02-28T02:33:16.442Z,6.30
2019-02-28T02:35:47.217Z,6.20
2019-02-28T02:38:17.965Z,6.10
2019-02-28T02:40:48.712Z,6.00
2019-02-28T02:43:22.138Z,5.90
2019-02-28T02:45:51.811Z,5.80
2019-02-28T02:48:22.591Z,5.70
2019-02-28T02:50:53.328Z,5.80
2019-02-28T02:53:24.062Z,5.70
2019-02-28T02:55:54.735Z,5.70
2019-02-28T02:58:27.816Z,5.60
2019-02-28T03:00:57.823Z,5.60
2019-02-28T03:03:28.564Z,5.60
2019-02-28T03:05:59.279Z,5.60
2019-02-28T03:08:35.693Z,5.50
2019-02-28T03:11:02.409Z,5.50
2019-02-28T03:13:33.146Z,5.40
2019-02-28T03:16:03.814Z,5.40
2019-02-28T03:18:34.557Z,5.50
2019-02-28T03:21:05.233Z,5.60
2019-02-28T03:23:40.199Z,5.60
2019-02-28T03:26:08.236Z,5.70
2019-02-28T03:28:38.976Z,5.70
2019-02-28T03:31:14.220Z,5.70
2019-02-28T03:33:41.996Z,5.70
2019-02-28T03:36:15.666Z,5.60
2019-02-28T03:38:49.600Z,5.60
2019-02-28T03:41:18.155Z,5.60
2019-02-28T03:43:49.132Z,5.70
2019-02-28T03:46:20.229Z,5.80
2019-02-28T03:48:51.607Z,5.80
2019-02-28T03:51:22.402Z,6.00
2019-02-28T03:53:56.015Z,6.10
2019-02-28T03:56:25.534Z,6.20
2019-02-28T03:58:56.211Z,6.10
2019-02-28T04:01:26.987Z,6.00
2019-02-28T04:03:57.684Z,5.90
2019-02-28T04:06:28.495Z,5.90
2019-02-28T04:09:07.012Z,6.00
2019-02-28T04:11:32.195Z,6.00
2019-02-28T04:14:02.990Z,6.10
2019-02-28T04:16:33.794Z,6.10
2019-02-28T04:19:04.504Z,6.10
2019-02-28T04:21:35.298Z,6.10
2019-02-28T04:24:12.393Z,6.10
2019-02-28T04:26:38.408Z,6.10
2019-02-28T04:29:09.124Z,6.10
2019-02-28T04:31:39.912Z,6.10
2019-02-28T04:34:13.448Z,6.00
2019-02-28T04:36:43.026Z,6.00
2019-02-28T04:39:13.743Z,6.00
2019-02-28T04:41:44.528Z,6.00
2019-02-28T04:44:15.434Z,6.00
2019-02-28T04:46:47.662Z,6.00
2019-02-28T04:49:37.472Z,5.90
2019-02-28T04:52:11.832Z,5.90
2019-02-28T04:54:40.605Z,5.80
2019-02-28T04:57:11.392Z,5.70
2019-02-28T04:59:42.098Z,5.70
2019-02-28T05:02:12.856Z,5.70
2019-02-28T05:04:43.540Z,5.70
2019-02-28T05:07:14.339Z,5.80
2019-02-28T05:09:45.286Z,5.80
2019-02-28T05:12:17.434Z,5.80
2019-02-28T05:14:48.176Z,5.70
2019-02-28T05:17:19.368Z,5.70
2019-02-28T05:19:51.332Z,5.70
2019-02-28T05:22:24.438Z,5.70
2019-02-28T05:24:54.482Z,5.70
2019-02-28T05:27:25.199Z,5.70
2019-02-28T05:29:55.944Z,5.60
2019-02-28T05:32:26.706Z,5.60
2019-02-28T05:34:57.467Z,5.60
2019-02-28T05:37:28.204Z,5.60
2019-02-28T05:39:58.981Z,5.60
2019-02-28T05:42:29.696Z,5.50
2019-02-28T05:45:00.421Z,5.40
2019-02-28T05:47:32.291Z,5.30
2019-02-28T05:50:03.584Z,5.30
2019-02-28T05:52:34.561Z,5.30
2019-02-28T05:55:05.579Z,5.30
2019-02-28T05:57:39.322Z,5.30
2019-02-28T06:00:09.337Z,5.30
2019-02-28T06:02:40.036Z,5.20
2019-02-28T06:05:12.033Z,5.10
2019-02-28T06:07:43.333Z,5.00
2019-02-28T06:10:14.156Z,4.90
2019-02-28T06:12:45.162Z,4.90
2019-02-28T06:15:16.007Z,4.90
2019-02-28T06:17:46.787Z,4.90
2019-02-28T06:20:18.060Z,4.90
2019-02-28T06:22:48.885Z,4.90
2019-02-28T06:25:23.954Z,4.80
2019-02-28T06:27:51.939Z,4.80
2019-02-28T06:30:22.766Z,4.70
2019-02-28T06:32:57.761Z,4.60
2019-02-28T06:35:25.870Z,4.70
2019-02-28T06:37:56.667Z,4.80
2019-02-28T06:40:32.569Z,4.80
2019-02-28T06:42:59.787Z,4.80
2019-02-28T06:45:30.553Z,4.80
2019-02-28T06:48:01.260Z,4.90
2019-02-28T06:50:32.057Z,5.10
2019-02-28T06:53:02.824Z,5.50
2019-02-28T06:55:33.579Z,6.10
2019-02-28T06:58:04.285Z,6.30
2019-02-28T07:00:34.987Z,6.30
2019-02-28T07:03:05.742Z,6.30
2019-02-28T07:05:36.515Z,6.30
2019-02-28T07:08:07.270Z,6.30
2019-02-28T07:10:38.054Z,6.40
2019-02-28T07:13:08.781Z,6.50
2019-02-28T07:15:39.558Z,6.60
2019-02-28T07:18:10.289Z,6.80
2019-02-28T07:20:41.031Z,6.90
2019-02-28T07:23:11.767Z,7.00
2019-02-28T07:25:44.306Z,7.00
2019-02-28T07:28:14.910Z,7.00
2019-02-28T07:30:45.662Z,7.10
2019-02-28T07:33:16.444Z,7.20
2019-02-28T07:35:47.219Z,7.20
2019-02-28T07:38:17.915Z,7.50
2019-02-28T07:40:49.780Z,7.90
2019-02-28T07:43:21.158Z,8.50
2019-02-28T07:45:52.268Z,9.00
2019-02-28T07:48:26.505Z,9.80
2019-02-28T07:50:55.398Z,10.70
2019-02-28T07:53:26.183Z,11.30
2019-02-28T07:55:56.969Z,10.90
2019-02-28T07:58:29.829Z,10.70
2019-02-28T08:01:00.032Z,10.40
2019-02-28T08:03:30.827Z,10.20
2019-02-28T08:06:04.482Z,10.10
2019-02-28T08:08:33.991Z,9.90
2019-02-28T08:11:04.807Z,9.90
2019-02-28T08:13:37.822Z,10.00
2019-02-28T08:16:08.062Z,10.20
2019-02-28T08:18:38.889Z,10.30
2019-02-28T08:21:09.654Z,10.50
2019-02-28T08:23:40.432Z,10.50
2019-02-28T08:26:11.235Z,10.80
2019-02-28T08:28:43.111Z,11.00
2019-02-28T08:31:13.898Z,11.20
2019-02-28T08:33:48.140Z,11.40
2019-02-28T08:36:17.371Z,11.50
2019-02-28T08:38:48.127Z,11.50
2019-02-28T08:41:18.928Z,11.60
2019-02-28T08:43:49.659Z,11.70
2019-02-28T08:46:20.405Z,11.70
2019-02-28T08:48:51.202Z,12.00
2019-02-28T08:51:23.075Z,12.40
2019-02-28T08:53:54.054Z,12.60
2019-02-28T08:56:24.804Z,12.50
2019-02-28T08:58:55.507Z,12.60
2019-02-28T09:01:26.240Z,12.80
2019-02-28T09:03:59.833Z,13.40
2019-02-28T09:06:29.326Z,13.90
2019-02-28T09:09:00.648Z,14.60
2019-02-28T09:11:31.692Z,15.20
2019-02-28T09:14:02.375Z,16.10
2019-02-28T09:16:33.003Z,16.40
2019-02-28T09:19:03.776Z,16.20
2019-02-28T09:21:34.523Z,15.90
2019-02-28T09:24:05.539Z,15.20
2019-02-28T09:26:36.286Z,15.40
2019-02-28T09:29:07.042Z,15.30
2019-02-28T09:31:39.058Z,15.10
2019-02-28T09:34:10.214Z,15.10
2019-02-28T09:36:40.962Z,15.10
2019-02-28T09:39:11.708Z,14.80
2019-02-28T09:41:42.484Z,14.20
2019-02-28T09:44:13.320Z,13.60
2019-02-28T09:46:44.068Z,13.20
2019-02-28T09:49:14.863Z,13.10
2019-02-28T09:51:45.683Z,13.60
2019-02-28T09:54:16.474Z,14.40
2019-02-28T09:56:47.262Z,14.80
2019-02-28T09:59:18.078Z,15.20
2019-02-28T10:01:48.934Z,15.60
2019-02-28T10:04:19.711Z,15.70
2019-02-28T10:06:51.534Z,15.60
2019-02-28T10:09:23.093Z,14.90
2019-02-28T10:11:53.881Z,14.50
2019-02-28T10:14:25.666Z,14.20
2019-02-28T10:16:57.099Z,14.10
2019-02-28T10:19:27.858Z,14.20
2019-02-28T10:21:58.633Z,14.10
2019-02-28T10:24:31.451Z,14.10
2019-02-28T10:27:03.443Z,14.30
2019-02-28T10:29:34.204Z,14.20
2019-02-28T10:32:06.183Z,14.00
2019-02-28T10:34:37.416Z,13.70
2019-02-28T10:37:08.113Z,13.40
2019-02-28T10:39:40.327Z,13.30
2019-02-28T10:42:11.285Z,13.30
2019-02-28T10:44:42.052Z,13.30
2019-02-28T10:47:12.818Z,13.30
2019-02-28T10:49:43.564Z,13.40
2019-02-28T10:52:14.300Z,13.40
2019-02-28T10:54:48.438Z,13.40
2019-02-28T10:57:17.443Z,13.40
2019-02-28T10:59:48.239Z,13.40
2019-02-28T11:02:20.019Z,13.30
2019-02-28T11:04:50.842Z,13.20
2019-02-28T11:07:21.592Z,13.10
2019-02-28T11:09:55.550Z,13.00
2019-02-28T11:12:26.579Z,13.10
2019-02-28T11:14:57.317Z,13.20
2019-02-28T11:17:30.491Z,13.30
2019-02-28T11:20:00.500Z,13.40
2019-02-28T11:22:31.266Z,13.40
2019-02-28T11:25:02.153Z,13.50
2019-02-28T11:27:33.198Z,13.60
2019-02-28T11:30:04.205Z,13.70
2019-02-28T11:32:34.971Z,13.70
2019-02-28T11:35:06.617Z,13.70
2019-02-28T11:37:37.714Z,14.00
2019-02-28T11:40:09.257Z,14.40
2019-02-28T11:42:40.198Z,14.80
2019-02-28T11:45:14.443Z,15.10
2019-02-28T11:47:45.351Z,15.30
2019-02-28T11:50:16.176Z,15.30
2019-02-28T11:52:46.981Z,15.50
2019-02-28T11:55:20.411Z,15.40
2019-02-28T11:57:52.340Z,15.30
2019-02-28T12:00:28.454Z,15.40
2019-02-28T12:03:00.823Z,15.70
2019-02-28T12:05:31.756Z,15.80
2019-02-28T12:08:02.488Z,15.70
2019-02-28T12:10:33.247Z,15.90
2019-02-28T12:13:04.052Z,16.00
2019-02-28T12:15:38.154Z,16.20
2019-02-28T12:18:07.616Z,16.40
2019-02-28T12:20:39.374Z,16.60
2019-02-28T12:23:10.140Z,16.40
2019-02-28T12:25:42.807Z,16.40
2019-02-28T12:28:13.311Z,16.50
2019-02-28T12:30:44.151Z,16.60
2019-02-28T12:33:15.516Z,16.80
2019-02-28T12:35:47.281Z,16.70
2019-02-28T12:38:18.047Z,16.50
2019-02-28T12:40:49.552Z,16.30
2019-02-28T12:43:20.408Z,16.20
2019-02-28T12:45:51.045Z,16.20
2019-02-28T12:48:21.793Z,16.10
2019-02-28T12:50:52.548Z,16.00
2019-02-28T12:53:25.337Z,16.10
2019-02-28T12:55:55.741Z,16.20
2019-02-28T12:58:36.463Z,16.50
2019-02-28T13:01:00.106Z,17.00
2019-02-28T13:03:31.294Z,17.10
2019-02-28T13:06:02.035Z,16.70
2019-02-28T13:08:32.872Z,16.60
2019-02-28T13:11:04.723Z,16.60
2019-02-28T13:13:35.585Z,16.60
2019-02-28T13:16:06.481Z,16.40
2019-02-28T13:18:39.678Z,16.40
2019-02-28T13:21:10.481Z,16.70
2019-02-28T13:23:42.393Z,17.10
2019-02-28T13:26:14.026Z,17.50
2019-02-28T13:28:44.776Z,18.40
2019-02-28T13:31:15.649Z,18.80
2019-02-28T13:33:48.626Z,19.40
2019-02-28T13:36:21.701Z,19.40
2019-02-28T13:38:54.678Z,19.20
2019-02-28T13:41:26.436Z,18.70
2019-02-28T13:43:59.420Z,18.10
2019-02-28T13:46:32.371Z,18.30
2019-02-28T13:49:00.671Z,18.00
2019-02-28T13:51:32.646Z,16.40
2019-02-28T13:54:06.490Z,15.40
2019-02-28T13:56:36.044Z,14.90
2019-02-28T13:59:06.830Z,14.70
2019-02-28T14:01:37.609Z,15.30
2019-02-28T14:04:08.363Z,15.60
2019-02-28T14:06:39.129Z,16.10
2019-02-28T14:09:09.878Z,16.00
2019-02-28T14:11:41.886Z,16.00
2019-02-28T14:14:13.061Z,15.90
2019-02-28T14:16:43.815Z,15.80
2019-02-28T14:19:16.716Z,15.60
2019-02-28T14:21:46.958Z,15.40
2019-02-28T14:24:17.724Z,15.20
2019-02-28T14:26:49.511Z,15.20
2019-02-28T14:29:20.856Z,15.20
2019-02-28T14:31:51.582Z,15.20
2019-02-28T14:34:25.976Z,15.20
2019-02-28T14:36:54.685Z,15.10
2019-02-28T14:39:25.424Z,15.20
2019-02-28T14:41:56.148Z,15.30
2019-02-28T14:44:27.959Z,15.30
2019-02-28T14:46:59.320Z,15.30
2019-02-28T14:49:30.087Z,15.40
2019-02-28T14:52:03.641Z,15.50
2019-02-28T14:54:33.280Z,15.30
2019-02-28T14:57:03.936Z,15.00
2019-02-28T14:59:34.701Z,14.80
2019-02-28T15:02:05.409Z,14.70
2019-02-28T15:04:36.165Z,14.70
2019-02-28T15:07:06.961Z,14.80
2019-02-28T15:09:37.676Z,14.80
2019-02-28T15:12:08.562Z,14.70
2019-02-28T15:14:40.614Z,14.80
2019-02-28T15:17:11.888Z,14.60
2019-02-28T15:19:42.654Z,14.50
2019-02-28T15:22:14.221Z,14.30
2019-02-28T15:24:45.791Z,14.30
2019-02-28T15:27:16.472Z,14.30
2019-02-28T15:29:47.687Z,14.30
2019-02-28T15:32:18.416Z,14.20
2019-02-28T15:34:49.180Z,14.10
2019-02-28T15:37:19.967Z,14.10
2019-02-28T15:39:50.772Z,14.10
2019-02-28T15:42:21.542Z,14.00
2019-02-28T15:44:52.296Z,13.80
2019-02-28T15:47:24.055Z,13.60
2019-02-28T15:49:54.894Z,13.40
2019-02-28T15:52:25.875Z,13.30
2019-02-28T15:55:01.970Z,13.20
2019-02-28T15:57:30.133Z,13.00
2019-02-28T16:00:01.405Z,13.00
2019-02-28T16:02:32.203Z,12.90
2019-02-28T16:05:05.206Z,12.80
2019-02-28T16:07:35.806Z,12.70
2019-02-28T16:10:07.331Z,12.60
2019-02-28T16:12:38.127Z,12.50
2019-02-28T16:15:11.865Z,12.40
2019-02-28T16:17:42.570Z,12.10
2019-02-28T16:20:13.526Z,11.80
2019-02-28T16:22:44.281Z,11.50
2019-02-28T16:25:18.130Z,11.30
2019-02-28T16:27:48.907Z,11.20
2019-02-28T16:30:19.762Z,11.00
2019-02-28T16:32:50.538Z,10.90
2019-02-28T16:35:21.275Z,10.80
2019-02-28T16:37:52.214Z,10.70
2019-02-28T16:40:26.083Z,10.70
2019-02-28T16:42:55.494Z,10.60
2019-02-28T16:45:29.670Z,10.50
2019-02-28T16:48:02.993Z,10.50
2019-02-28T16:50:33.964Z,10.40
2019-02-28T16:53:05.289Z,10.40
2019-02-28T16:55:36.164Z,10.40
2019-02-28T16:58:07.277Z,10.30
2019-02-28T17:00:39.596Z,10.30
2019-02-28T17:03:10.555Z,10.30
2019-02-28T17:05:41.332Z,10.20
2019-02-28T17:08:15.617Z,10.20
2019-02-28T17:10:45.416Z,10.20
2019-02-28T17:13:44.238Z,10.20
2019-02-28T17:16:25.166Z,10.20
2019-02-28T17:18:56.858Z,10.20
2019-02-28T17:21:28.179Z,10.20
2019-02-28T17:23:58.936Z,10.10
2019-02-28T17:26:47.478Z,10.10
2019-02-28T17:29:33.578Z,10.10
2019-02-28T17:32:04.851Z,10.10
2019-02-28T17:34:35.618Z,10.00
2019-02-28T17:37:06.465Z,10.00
2019-02-28T17:39:37.233Z,9.90
2019-02-28T17:42:08.792Z,9.80
2019-02-28T17:45:04.241Z,9.70
2019-02-28T17:48:20.696Z,9.70
2019-02-28T17:51:10.390Z,9.60
2019-02-28T17:53:59.128Z,9.50
2019-02-28T17:57:09.933Z,9.50
2019-02-28T17:59:51.352Z,9.50
2019-02-28T18:02:49.875Z,9.40
2019-02-28T18:05:45.487Z,9.40
2019-02-28T18:08:24.786Z,9.40
2019-02-28T18:11:25.349Z,9.40
2019-02-28T18:14:22.368Z,9.40
2019-02-28T18:17:32.391Z,9.40
2019-02-28T18:21:00.771Z,9.30
2019-02-28T18:23:50.869Z,9.30
2019-02-28T18:26:51.651Z,9.30
2019-02-28T18:29:51.914Z,9.30
2019-02-28T18:32:22.651Z,9.30
2019-02-28T18:34:56.194Z,9.20
2019-02-28T18:37:25.771Z,9.20
2019-02-28T18:39:56.450Z,9.10
2019-02-28T18:42:27.206Z,9.00
2019-02-28T18:44:57.972Z,8.90
2019-02-28T18:47:28.719Z,8.90
2019-02-28T18:49:59.445Z,8.90
2019-02-28T18:52:30.221Z,8.80
2019-02-28T18:55:06.008Z,8.70
2019-02-28T18:57:33.345Z,8.70
2019-02-28T19:00:04.903Z,8.70
2019-02-28T19:02:35.669Z,8.70
2019-02-28T19:05:07.265Z,8.80
2019-02-28T19:07:38.099Z,8.80
2019-02-28T19:10:09.139Z,8.80
2019-02-28T19:12:40.023Z,8.80
2019-02-28T19:15:10.858Z,8.80
2019-02-28T19:17:41.604Z,8.70
2019-02-28T19:20:12.432Z,8.70
2019-02-28T19:22:43.278Z,8.80
2019-02-28T19:25:14.045Z,8.70
2019-02-28T19:27:44.821Z,8.70
2019-02-28T19:30:15.568Z,8.60
2019-02-28T19:32:46.354Z,8.70
2019-02-28T19:35:17.098Z,8.70
2019-02-28T19:37:47.899Z,8.70
2019-02-28T19:40:18.640Z,8.70
2019-02-28T19:42:49.412Z,8.80
2019-02-28T19:45:20.183Z,8.80
2019-02-28T19:47:50.960Z,8.70
2019-02-28T19:50:21.719Z,8.80
2019-02-28T19:52:54.087Z,8.70
2019-02-28T19:55:25.018Z,8.80
2019-02-28T19:57:55.780Z,8.80
2019-02-28T20:00:26.561Z,8.80
2019-02-28T20:02:57.328Z,8.80
2019-02-28T20:05:28.083Z,8.80
2019-02-28T20:07:58.848Z,8.80
2019-02-28T20:10:29.615Z,8.80
2019-02-28T20:13:00.403Z,8.80
2019-02-28T20:15:34.272Z,8.80
2019-02-28T20:18:05.001Z,8.80
2019-02-28T20:20:35.766Z,8.80
2019-02-28T20:23:06.537Z,8.70
2019-02-28T20:25:37.366Z,8.80
2019-02-28T20:28:08.120Z,8.70
2019-02-28T20:30:38.909Z,8.70
2019-02-28T20:33:09.672Z,8.60
2019-02-28T20:35:40.628Z,8.40
2019-02-28T20:38:11.358Z,8.30
2019-02-28T20:40:42.127Z,8.20
2019-02-28T20:43:12.908Z,8.20
2019-02-28T20:45:43.993Z,8.10
2019-02-28T20:48:15.374Z,8.10
2019-02-28T20:50:46.348Z,8.10
2019-02-28T20:53:17.193Z,8.10
2019-02-28T20:55:47.942Z,8.10
2019-02-28T20:58:18.696Z,8.10
2019-02-28T21:00:49.460Z,8.10
2019-02-28T21:03:20.251Z,8.10
2019-02-28T21:05:51.014Z,8.10
2019-02-28T21:08:21.730Z,8.20
2019-02-28T21:10:52.497Z,8.20
2019-02-28T21:13:23.253Z,8.20
2019-02-28T21:15:54.119Z,8.20
2019-02-28T21:18:24.895Z,8.30
2019-02-28T21:20:55.661Z,8.30
2019-02-28T21:23:26.397Z,8.30
2019-02-28T21:25:57.435Z,8.30
2019-02-28T21:28:28.260Z,8.30
2019-02-28T21:30:58.996Z,8.30
2019-02-28T21:33:29.723Z,8.30
2019-02-28T21:36:00.515Z,8.30
2019-02-28T21:38:31.257Z,8.30
2019-02-28T21:41:01.911Z,8.30
2019-02-28T21:43:32.532Z,8.30
2019-02-28T21:46:03.276Z,8.30
2019-02-28T21:48:34.001Z,8.30
2019-02-28T21:51:04.719Z,8.40
2019-02-28T21:53:35.333Z,8.40
2019-02-28T21:56:06.059Z,8.40
2019-02-28T21:58:36.805Z,8.40
2019-02-28T22:01:07.421Z,8.40
2019-02-28T22:03:38.124Z,8.40
2019-02-28T22:06:08.845Z,8.40
2019-02-28T22:08:39.440Z,8.40
2019-02-28T22:11:10.158Z,8.30
2019-02-28T22:13:40.917Z,8.30
2019-02-28T22:16:11.641Z,8.30
2019-02-28T22:18:42.416Z,8.40
2019-02-28T22:21:13.101Z,8.30
2019-02-28T22:23:43.840Z,8.30
2019-02-28T22:26:14.544Z,8.30
2019-02-28T22:28:45.261Z,8.30
2019-02-28T22:31:40.506Z,8.30
2019-02-28T22:34:19.461Z,8.30
2019-02-28T22:36:50.178Z,8.30
2019-02-28T22:39:20.916Z,8.30
2019-02-28T22:41:53.931Z,8.20
2019-02-28T22:44:24.969Z,8.20
2019-02-28T22:46:55.653Z,8.10
2019-02-28T22:49:26.393Z,8.00
2019-02-28T22:51:57.095Z,8.10
2019-02-28T22:54:27.832Z,8.00
2019-02-28T22:56:58.458Z,8.00
2019-02-28T22:59:29.150Z,8.00
2019-02-28T23:02:00.171Z,7.90
2019-02-28T23:04:30.849Z,7.80
2019-02-28T23:07:01.494Z,7.80
2019-02-28T23:09:32.210Z,7.70
2019-02-28T23:12:03.128Z,7.60
2019-02-28T23:14:33.893Z,7.50
2019-02-28T23:17:04.600Z,7.50
2019-02-28T23:19:35.335Z,7.50
2019-02-28T23:22:05.971Z,7.40
2019-02-28T23:24:36.697Z,7.40
2019-02-28T23:27:18.337Z,7.30
2019-02-28T23:29:53.996Z,7.30
2019-02-28T23:32:46.687Z,7.30
2019-02-28T23:35:24.624Z,7.30
2019-02-28T23:37:55.250Z,7.30
2019-02-28T23:40:25.930Z,7.30
2019-02-28T23:42:56.653Z,7.20
2019-02-28T23:45:27.409Z,7.20
2019-02-28T23:47:58.115Z,7.20
2019-02-28T23:50:28.846Z,7.20
2019-02-28T23:52:59.458Z,7.20
2019-02-28T23:55:30.196Z,7.20
2019-02-28T23:58:00.921Z,7.20
